sensor_id;sensor_type;location;lat;lon;timestamp;P1;durP1;ratioP1;P2;durP2;ratioP2
21168;SDS011;10742;51.816;8.662;2023-12-07T00:03:18;29.60;;;13.53;;
21168;SDS011;10742;51.816;8.662;2023-12-07T00:06:39;30.33;;;13.43;;
21168;SDS011;10742;51.816;8.662;2023-12-07T00:10:00;27.63;;;12.87;;
21168;SDS011;10742;51.816;8.662;2023-12-07T00:13:21;29.67;;;13.43;;
21168;SDS011;10742;51.816;8.662;2023-12-07T00:16:42;29.77;;;13.10;;
21168;SDS011;10742;51.816;8.662;2023-12-07T00:20:03;29.00;;;13.83;;
21168;SDS011;10742;51.816;8.662;2023-12-07T00:23:25;27.87;;;13.03;;
21168;SDS011;10742;51.816;8.662;2023-12-07T00:26:46;28.07;;;13.00;;
21168;SDS011;10742;51.816;8.662;2023-12-07T00:30:08;27.87;;;14.10;;
21168;SDS011;10742;51.816;8.662;2023-12-07T00:33:30;27.90;;;13.30;;
21168;SDS011;10742;51.816;8.662;2023-12-07T00:36:51;27.53;;;12.73;;
21168;SDS011;10742;51.816;8.662;2023-12-07T00:40:12;30.63;;;13.50;;
21168;SDS011;10742;51.816;8.662;2023-12-07T00:43:34;29.03;;;14.07;;
21168;SDS011;10742;51.816;8.662;2023-12-07T00:46:55;29.90;;;13.57;;
21168;SDS011;10742;51.816;8.662;2023-12-07T00:50:16;31.00;;;14.30;;
21168;SDS011;10742;51.816;8.662;2023-12-07T00:53:37;26.73;;;12.57;;
21168;SDS011;10742;51.816;8.662;2023-12-07T00:56:58;27.93;;;13.03;;
21168;SDS011;10742;51.816;8.662;2023-12-07T01:00:19;28.80;;;13.83;;
21168;SDS011;10742;51.816;8.662;2023-12-07T01:03:40;29.83;;;14.03;;
21168;SDS011;10742;51.816;8.662;2023-12-07T01:07:02;30.03;;;14.50;;
21168;SDS011;10742;51.816;8.662;2023-12-07T01:10:23;28.50;;;13.97;;
21168;SDS011;10742;51.816;8.662;2023-12-07T01:13:44;28.70;;;13.63;;
21168;SDS011;10742;51.816;8.662;2023-12-07T01:17:07;32.37;;;14.93;;
21168;SDS011;10742;51.816;8.662;2023-12-07T01:20:28;30.73;;;15.30;;
21168;SDS011;10742;51.816;8.662;2023-12-07T01:23:49;32.20;;;14.90;;
21168;SDS011;10742;51.816;8.662;2023-12-07T01:27:12;28.60;;;14.57;;
21168;SDS011;10742;51.816;8.662;2023-12-07T01:30:33;30.67;;;14.30;;
21168;SDS011;10742;51.816;8.662;2023-12-07T01:33:54;31.33;;;14.47;;
21168;SDS011;10742;51.816;8.662;2023-12-07T01:37:15;32.43;;;14.83;;
21168;SDS011;10742;51.816;8.662;2023-12-07T01:40:37;32.03;;;15.53;;
21168;SDS011;10742;51.816;8.662;2023-12-07T01:43:58;32.87;;;14.90;;
21168;SDS011;10742;51.816;8.662;2023-12-07T01:47:19;31.63;;;15.03;;
21168;SDS011;10742;51.816;8.662;2023-12-07T01:50:40;30.43;;;15.47;;
21168;SDS011;10742;51.816;8.662;2023-12-07T01:54:02;35.83;;;14.90;;
21168;SDS011;10742;51.816;8.662;2023-12-07T01:57:23;30.17;;;15.50;;
21168;SDS011;10742;51.816;8.662;2023-12-07T02:00:46;30.87;;;15.27;;
21168;SDS011;10742;51.816;8.662;2023-12-07T02:04:09;32.77;;;15.87;;
21168;SDS011;10742;51.816;8.662;2023-12-07T02:07:31;31.97;;;15.63;;
21168;SDS011;10742;51.816;8.662;2023-12-07T02:10:51;29.50;;;15.30;;
21168;SDS011;10742;51.816;8.662;2023-12-07T02:14:13;31.47;;;15.33;;
21168;SDS011;10742;51.816;8.662;2023-12-07T02:17:35;29.50;;;14.77;;
21168;SDS011;10742;51.816;8.662;2023-12-07T02:25:09;30.90;;;14.30;;
21168;SDS011;10742;51.816;8.662;2023-12-07T02:28:31;34.13;;;16.83;;
21168;SDS011;10742;51.816;8.662;2023-12-07T02:31:52;35.90;;;16.47;;
21168;SDS011;10742;51.816;8.662;2023-12-07T02:35:14;32.17;;;15.10;;
21168;SDS011;10742;51.816;8.662;2023-12-07T02:38:36;31.33;;;15.47;;
21168;SDS011;10742;51.816;8.662;2023-12-07T02:41:58;29.17;;;14.27;;
21168;SDS011;10742;51.816;8.662;2023-12-07T02:45:20;32.77;;;15.57;;
21168;SDS011;10742;51.816;8.662;2023-12-07T02:48:42;31.33;;;14.37;;
21168;SDS011;10742;51.816;8.662;2023-12-07T02:52:03;29.53;;;14.53;;
21168;SDS011;10742;51.816;8.662;2023-12-07T02:55:25;34.47;;;15.60;;
21168;SDS011;10742;51.816;8.662;2023-12-07T02:58:46;31.17;;;14.70;;
21168;SDS011;10742;51.816;8.662;2023-12-07T03:02:07;31.00;;;14.70;;
21168;SDS011;10742;51.816;8.662;2023-12-07T03:05:28;30.80;;;14.60;;
21168;SDS011;10742;51.816;8.662;2023-12-07T03:08:49;31.03;;;14.23;;
21168;SDS011;10742;51.816;8.662;2023-12-07T03:12:09;33.53;;;15.00;;
21168;SDS011;10742;51.816;8.662;2023-12-07T03:15:31;29.70;;;14.63;;
21168;SDS011;10742;51.816;8.662;2023-12-07T03:18:52;29.50;;;14.43;;
21168;SDS011;10742;51.816;8.662;2023-12-07T03:22:13;31.93;;;15.63;;
21168;SDS011;10742;51.816;8.662;2023-12-07T03:25:35;28.60;;;14.07;;
21168;SDS011;10742;51.816;8.662;2023-12-07T03:28:56;28.20;;;13.83;;
21168;SDS011;10742;51.816;8.662;2023-12-07T03:32:19;31.30;;;14.87;;
21168;SDS011;10742;51.816;8.662;2023-12-07T03:35:40;31.27;;;14.33;;
21168;SDS011;10742;51.816;8.662;2023-12-07T03:39:01;28.80;;;14.07;;
21168;SDS011;10742;51.816;8.662;2023-12-07T03:42:23;29.50;;;14.27;;
21168;SDS011;10742;51.816;8.662;2023-12-07T03:45:44;28.40;;;13.70;;
21168;SDS011;10742;51.816;8.662;2023-12-07T03:49:05;30.50;;;14.00;;
21168;SDS011;10742;51.816;8.662;2023-12-07T03:52:26;29.10;;;12.77;;
21168;SDS011;10742;51.816;8.662;2023-12-07T03:55:48;32.77;;;14.43;;
21168;SDS011;10742;51.816;8.662;2023-12-07T03:59:09;29.30;;;12.77;;
21168;SDS011;10742;51.816;8.662;2023-12-07T04:02:30;28.33;;;12.50;;
21168;SDS011;10742;51.816;8.662;2023-12-07T04:05:53;28.33;;;12.77;;
21168;SDS011;10742;51.816;8.662;2023-12-07T04:09:14;28.47;;;13.23;;
21168;SDS011;10742;51.816;8.662;2023-12-07T04:12:35;28.27;;;12.37;;
21168;SDS011;10742;51.816;8.662;2023-12-07T04:15:57;26.93;;;12.67;;
21168;SDS011;10742;51.816;8.662;2023-12-07T04:19:19;28.77;;;12.37;;
21168;SDS011;10742;51.816;8.662;2023-12-07T04:22:40;28.07;;;12.80;;
21168;SDS011;10742;51.816;8.662;2023-12-07T04:26:01;28.10;;;13.67;;
21168;SDS011;10742;51.816;8.662;2023-12-07T04:29:22;30.33;;;14.17;;
21168;SDS011;10742;51.816;8.662;2023-12-07T04:32:43;32.53;;;15.07;;
21168;SDS011;10742;51.816;8.662;2023-12-07T04:36:05;32.83;;;14.50;;
21168;SDS011;10742;51.816;8.662;2023-12-07T04:39:26;35.63;;;16.07;;
21168;SDS011;10742;51.816;8.662;2023-12-07T04:42:47;34.73;;;16.37;;
21168;SDS011;10742;51.816;8.662;2023-12-07T04:46:08;39.27;;;16.50;;
21168;SDS011;10742;51.816;8.662;2023-12-07T04:49:30;40.33;;;17.87;;
21168;SDS011;10742;51.816;8.662;2023-12-07T04:52:50;38.40;;;17.97;;
21168;SDS011;10742;51.816;8.662;2023-12-07T04:56:12;42.13;;;19.60;;
21168;SDS011;10742;51.816;8.662;2023-12-07T04:59:34;48.53;;;20.13;;
21168;SDS011;10742;51.816;8.662;2023-12-07T05:02:57;46.77;;;20.13;;
21168;SDS011;10742;51.816;8.662;2023-12-07T05:06:18;43.90;;;19.20;;
21168;SDS011;10742;51.816;8.662;2023-12-07T05:09:39;41.33;;;18.53;;
21168;SDS011;10742;51.816;8.662;2023-12-07T05:13:01;45.30;;;19.90;;
21168;SDS011;10742;51.816;8.662;2023-12-07T05:16:22;40.13;;;18.37;;
21168;SDS011;10742;51.816;8.662;2023-12-07T05:19:44;41.23;;;19.20;;
21168;SDS011;10742;51.816;8.662;2023-12-07T05:23:05;43.17;;;20.70;;
21168;SDS011;10742;51.816;8.662;2023-12-07T05:26:26;41.13;;;18.43;;
21168;SDS011;10742;51.816;8.662;2023-12-07T05:29:48;41.37;;;18.33;;
21168;SDS011;10742;51.816;8.662;2023-12-07T05:33:09;39.40;;;18.70;;
21168;SDS011;10742;51.816;8.662;2023-12-07T05:36:29;42.67;;;19.63;;
21168;SDS011;10742;51.816;8.662;2023-12-07T05:39:50;39.50;;;18.67;;
21168;SDS011;10742;51.816;8.662;2023-12-07T05:43:12;46.93;;;19.07;;
21168;SDS011;10742;51.816;8.662;2023-12-07T05:46:34;45.63;;;19.67;;
21168;SDS011;10742;51.816;8.662;2023-12-07T05:49:56;39.53;;;18.90;;
21168;SDS011;10742;51.816;8.662;2023-12-07T05:53:20;43.10;;;18.97;;
21168;SDS011;10742;51.816;8.662;2023-12-07T05:56:41;38.13;;;17.70;;
21168;SDS011;10742;51.816;8.662;2023-12-07T06:00:04;39.27;;;18.50;;
21168;SDS011;10742;51.816;8.662;2023-12-07T06:03:31;39.53;;;19.20;;
21168;SDS011;10742;51.816;8.662;2023-12-07T06:06:53;40.00;;;18.07;;
21168;SDS011;10742;51.816;8.662;2023-12-07T06:10:14;37.50;;;17.63;;
21168;SDS011;10742;51.816;8.662;2023-12-07T06:13:37;35.93;;;17.57;;
21168;SDS011;10742;51.816;8.662;2023-12-07T06:16:58;39.47;;;17.77;;
21168;SDS011;10742;51.816;8.662;2023-12-07T06:20:20;36.53;;;17.40;;
21168;SDS011;10742;51.816;8.662;2023-12-07T06:23:41;34.00;;;16.47;;
21168;SDS011;10742;51.816;8.662;2023-12-07T06:27:02;40.23;;;17.07;;
21168;SDS011;10742;51.816;8.662;2023-12-07T06:30:24;36.33;;;16.77;;
21168;SDS011;10742;51.816;8.662;2023-12-07T06:33:45;38.83;;;17.47;;
21168;SDS011;10742;51.816;8.662;2023-12-07T06:37:06;37.43;;;18.60;;
21168;SDS011;10742;51.816;8.662;2023-12-07T06:40:27;36.53;;;17.43;;
21168;SDS011;10742;51.816;8.662;2023-12-07T06:43:48;37.80;;;16.90;;
21168;SDS011;10742;51.816;8.662;2023-12-07T06:47:09;37.27;;;17.93;;
21168;SDS011;10742;51.816;8.662;2023-12-07T06:50:30;39.90;;;17.47;;
21168;SDS011;10742;51.816;8.662;2023-12-07T06:53:52;38.63;;;18.60;;
21168;SDS011;10742;51.816;8.662;2023-12-07T06:57:13;38.30;;;18.20;;
21168;SDS011;10742;51.816;8.662;2023-12-07T07:00:34;51.70;;;26.27;;
21168;SDS011;10742;51.816;8.662;2023-12-07T07:03:57;62.77;;;31.03;;
21168;SDS011;10742;51.816;8.662;2023-12-07T07:07:18;44.40;;;21.17;;
21168;SDS011;10742;51.816;8.662;2023-12-07T07:10:39;45.53;;;22.30;;
21168;SDS011;10742;51.816;8.662;2023-12-07T07:14:00;43.40;;;22.10;;
21168;SDS011;10742;51.816;8.662;2023-12-07T07:17:22;47.90;;;23.40;;
21168;SDS011;10742;51.816;8.662;2023-12-07T07:20:43;38.23;;;18.60;;
21168;SDS011;10742;51.816;8.662;2023-12-07T07:24:05;41.20;;;19.57;;
21168;SDS011;10742;51.816;8.662;2023-12-07T07:27:27;43.80;;;20.60;;
21168;SDS011;10742;51.816;8.662;2023-12-07T07:30:48;45.43;;;20.90;;
21168;SDS011;10742;51.816;8.662;2023-12-07T07:34:09;41.97;;;18.27;;
21168;SDS011;10742;51.816;8.662;2023-12-07T07:37:30;38.20;;;17.63;;
21168;SDS011;10742;51.816;8.662;2023-12-07T07:40:51;42.73;;;20.87;;
21168;SDS011;10742;51.816;8.662;2023-12-07T07:44:12;39.03;;;19.27;;
21168;SDS011;10742;51.816;8.662;2023-12-07T07:47:33;43.50;;;19.60;;
21168;SDS011;10742;51.816;8.662;2023-12-07T07:50:58;43.63;;;21.20;;
21168;SDS011;10742;51.816;8.662;2023-12-07T07:54:19;44.70;;;21.10;;
21168;SDS011;10742;51.816;8.662;2023-12-07T07:57:40;38.30;;;18.00;;
21168;SDS011;10742;51.816;8.662;2023-12-07T08:01:01;44.60;;;20.40;;
21168;SDS011;10742;51.816;8.662;2023-12-07T08:04:22;39.57;;;17.67;;
21168;SDS011;10742;51.816;8.662;2023-12-07T08:07:43;45.40;;;21.40;;
21168;SDS011;10742;51.816;8.662;2023-12-07T08:11:04;41.80;;;18.83;;
21168;SDS011;10742;51.816;8.662;2023-12-07T08:14:26;54.70;;;25.30;;
21168;SDS011;10742;51.816;8.662;2023-12-07T08:17:48;48.80;;;22.73;;
21168;SDS011;10742;51.816;8.662;2023-12-07T08:21:18;49.77;;;21.03;;
21168;SDS011;10742;51.816;8.662;2023-12-07T08:24:43;46.37;;;21.67;;
21168;SDS011;10742;51.816;8.662;2023-12-07T08:28:05;38.37;;;17.90;;
21168;SDS011;10742;51.816;8.662;2023-12-07T08:31:26;39.87;;;18.03;;
21168;SDS011;10742;51.816;8.662;2023-12-07T08:34:47;42.50;;;18.20;;
21168;SDS011;10742;51.816;8.662;2023-12-07T08:38:08;35.63;;;16.70;;
21168;SDS011;10742;51.816;8.662;2023-12-07T08:41:29;40.13;;;18.03;;
21168;SDS011;10742;51.816;8.662;2023-12-07T08:44:50;37.80;;;16.20;;
21168;SDS011;10742;51.816;8.662;2023-12-07T08:48:11;36.70;;;17.07;;
21168;SDS011;10742;51.816;8.662;2023-12-07T08:51:32;38.47;;;17.27;;
21168;SDS011;10742;51.816;8.662;2023-12-07T08:54:54;35.37;;;16.47;;
21168;SDS011;10742;51.816;8.662;2023-12-07T08:58:17;39.57;;;16.67;;
21168;SDS011;10742;51.816;8.662;2023-12-07T09:01:37;36.47;;;16.23;;
21168;SDS011;10742;51.816;8.662;2023-12-07T09:04:58;37.67;;;17.00;;
21168;SDS011;10742;51.816;8.662;2023-12-07T09:08:20;35.77;;;16.33;;
21168;SDS011;10742;51.816;8.662;2023-12-07T09:11:40;42.13;;;17.50;;
21168;SDS011;10742;51.816;8.662;2023-12-07T09:15:02;40.83;;;17.20;;
21168;SDS011;10742;51.816;8.662;2023-12-07T09:18:24;39.53;;;17.50;;
21168;SDS011;10742;51.816;8.662;2023-12-07T09:21:45;37.73;;;16.27;;
21168;SDS011;10742;51.816;8.662;2023-12-07T09:25:06;38.43;;;17.13;;
21168;SDS011;10742;51.816;8.662;2023-12-07T09:28:28;39.93;;;17.10;;
21168;SDS011;10742;51.816;8.662;2023-12-07T09:31:49;36.77;;;16.73;;
21168;SDS011;10742;51.816;8.662;2023-12-07T09:35:11;39.70;;;17.50;;
21168;SDS011;10742;51.816;8.662;2023-12-07T09:38:39;36.73;;;16.43;;
21168;SDS011;10742;51.816;8.662;2023-12-07T09:42:01;34.17;;;14.97;;
21168;SDS011;10742;51.816;8.662;2023-12-07T09:45:22;34.40;;;15.13;;
21168;SDS011;10742;51.816;8.662;2023-12-07T09:48:44;34.27;;;14.37;;
21168;SDS011;10742;51.816;8.662;2023-12-07T09:52:09;31.13;;;13.73;;
21168;SDS011;10742;51.816;8.662;2023-12-07T09:55:32;29.57;;;13.80;;
21168;SDS011;10742;51.816;8.662;2023-12-07T09:58:53;33.13;;;13.57;;
21168;SDS011;10742;51.816;8.662;2023-12-07T10:02:16;34.37;;;15.63;;
21168;SDS011;10742;51.816;8.662;2023-12-07T10:05:54;34.20;;;14.50;;
21168;SDS011;10742;51.816;8.662;2023-12-07T10:09:18;29.73;;;13.37;;
21168;SDS011;10742;51.816;8.662;2023-12-07T10:12:55;29.77;;;13.37;;
21168;SDS011;10742;51.816;8.662;2023-12-07T10:16:19;27.30;;;12.27;;
21168;SDS011;10742;51.816;8.662;2023-12-07T10:19:40;26.43;;;11.83;;
21168;SDS011;10742;51.816;8.662;2023-12-07T10:23:06;30.50;;;12.40;;
21168;SDS011;10742;51.816;8.662;2023-12-07T10:26:29;30.93;;;12.63;;
21168;SDS011;10742;51.816;8.662;2023-12-07T10:29:51;26.47;;;12.13;;
21168;SDS011;10742;51.816;8.662;2023-12-07T10:33:13;27.87;;;11.60;;
21168;SDS011;10742;51.816;8.662;2023-12-07T10:36:34;27.07;;;10.90;;
21168;SDS011;10742;51.816;8.662;2023-12-07T10:39:56;23.53;;;10.70;;
21168;SDS011;10742;51.816;8.662;2023-12-07T10:43:17;24.00;;;10.40;;
21168;SDS011;10742;51.816;8.662;2023-12-07T10:46:41;25.43;;;10.80;;
21168;SDS011;10742;51.816;8.662;2023-12-07T10:50:05;26.60;;;10.80;;
21168;SDS011;10742;51.816;8.662;2023-12-07T10:53:37;24.17;;;10.63;;
21168;SDS011;10742;51.816;8.662;2023-12-07T10:57:04;24.03;;;10.70;;
21168;SDS011;10742;51.816;8.662;2023-12-07T11:00:26;26.57;;;11.40;;
21168;SDS011;10742;51.816;8.662;2023-12-07T11:03:52;23.57;;;10.10;;
21168;SDS011;10742;51.816;8.662;2023-12-07T11:07:17;24.13;;;10.43;;
21168;SDS011;10742;51.816;8.662;2023-12-07T11:11:00;26.47;;;10.43;;
21168;SDS011;10742;51.816;8.662;2023-12-07T11:14:23;23.33;;;9.60;;
21168;SDS011;10742;51.816;8.662;2023-12-07T11:17:52;21.43;;;9.57;;
21168;SDS011;10742;51.816;8.662;2023-12-07T11:21:16;23.07;;;9.53;;
21168;SDS011;10742;51.816;8.662;2023-12-07T11:24:37;22.57;;;9.67;;
21168;SDS011;10742;51.816;8.662;2023-12-07T11:28:05;24.40;;;9.73;;
21168;SDS011;10742;51.816;8.662;2023-12-07T11:31:28;22.37;;;8.87;;
21168;SDS011;10742;51.816;8.662;2023-12-07T11:34:49;20.17;;;8.60;;
21168;SDS011;10742;51.816;8.662;2023-12-07T11:38:13;18.67;;;8.03;;
21168;SDS011;10742;51.816;8.662;2023-12-07T11:41:46;22.33;;;9.23;;
21168;SDS011;10742;51.816;8.662;2023-12-07T11:45:11;19.30;;;8.53;;
21168;SDS011;10742;51.816;8.662;2023-12-07T11:48:33;22.87;;;8.33;;
21168;SDS011;10742;51.816;8.662;2023-12-07T11:51:54;17.37;;;7.93;;
21168;SDS011;10742;51.816;8.662;2023-12-07T11:55:15;17.97;;;7.70;;
21168;SDS011;10742;51.816;8.662;2023-12-07T11:58:39;15.47;;;7.00;;
21168;SDS011;10742;51.816;8.662;2023-12-07T12:02:01;18.87;;;8.00;;
21168;SDS011;10742;51.816;8.662;2023-12-07T12:05:25;17.37;;;7.67;;
21168;SDS011;10742;51.816;8.662;2023-12-07T12:08:48;17.33;;;7.50;;
21168;SDS011;10742;51.816;8.662;2023-12-07T12:12:09;17.03;;;7.47;;
21168;SDS011;10742;51.816;8.662;2023-12-07T12:15:31;19.33;;;7.70;;
21168;SDS011;10742;51.816;8.662;2023-12-07T12:18:52;16.20;;;7.03;;
21168;SDS011;10742;51.816;8.662;2023-12-07T12:22:13;22.27;;;8.20;;
21168;SDS011;10742;51.816;8.662;2023-12-07T12:25:34;17.17;;;7.50;;
21168;SDS011;10742;51.816;8.662;2023-12-07T12:28:58;24.37;;;7.83;;
21168;SDS011;10742;51.816;8.662;2023-12-07T12:32:20;18.90;;;7.40;;
21168;SDS011;10742;51.816;8.662;2023-12-07T12:35:42;16.27;;;6.73;;
21168;SDS011;10742;51.816;8.662;2023-12-07T12:39:04;17.40;;;6.77;;
21168;SDS011;10742;51.816;8.662;2023-12-07T12:42:32;16.33;;;6.90;;
21168;SDS011;10742;51.816;8.662;2023-12-07T12:45:53;16.97;;;7.10;;
21168;SDS011;10742;51.816;8.662;2023-12-07T12:49:18;15.50;;;6.60;;
21168;SDS011;10742;51.816;8.662;2023-12-07T12:52:39;13.07;;;6.27;;
21168;SDS011;10742;51.816;8.662;2023-12-07T12:56:01;11.60;;;5.57;;
21168;SDS011;10742;51.816;8.662;2023-12-07T12:59:22;15.63;;;6.10;;
21168;SDS011;10742;51.816;8.662;2023-12-07T13:02:44;14.97;;;6.33;;
21168;SDS011;10742;51.816;8.662;2023-12-07T13:06:05;17.10;;;7.37;;
21168;SDS011;10742;51.816;8.662;2023-12-07T13:09:26;20.17;;;7.80;;
21168;SDS011;10742;51.816;8.662;2023-12-07T13:12:48;18.30;;;7.00;;
21168;SDS011;10742;51.816;8.662;2023-12-07T13:16:09;16.20;;;7.20;;
21168;SDS011;10742;51.816;8.662;2023-12-07T13:19:32;12.53;;;6.23;;
21168;SDS011;10742;51.816;8.662;2023-12-07T13:22:53;17.27;;;7.23;;
21168;SDS011;10742;51.816;8.662;2023-12-07T13:26:16;12.83;;;5.90;;
21168;SDS011;10742;51.816;8.662;2023-12-07T13:29:39;16.20;;;6.57;;
21168;SDS011;10742;51.816;8.662;2023-12-07T13:33:01;14.17;;;6.13;;
21168;SDS011;10742;51.816;8.662;2023-12-07T13:36:26;16.27;;;6.20;;
21168;SDS011;10742;51.816;8.662;2023-12-07T13:39:50;16.03;;;6.30;;
21168;SDS011;10742;51.816;8.662;2023-12-07T13:43:16;15.20;;;6.57;;
21168;SDS011;10742;51.816;8.662;2023-12-07T13:46:37;14.33;;;5.93;;
21168;SDS011;10742;51.816;8.662;2023-12-07T13:49:58;17.47;;;6.83;;
21168;SDS011;10742;51.816;8.662;2023-12-07T13:53:20;15.37;;;6.40;;
21168;SDS011;10742;51.816;8.662;2023-12-07T13:56:42;16.00;;;6.37;;
21168;SDS011;10742;51.816;8.662;2023-12-07T14:00:04;16.77;;;6.70;;
21168;SDS011;10742;51.816;8.662;2023-12-07T14:03:25;13.27;;;5.73;;
21168;SDS011;10742;51.816;8.662;2023-12-07T14:06:46;12.30;;;5.80;;
21168;SDS011;10742;51.816;8.662;2023-12-07T14:10:07;14.13;;;5.63;;
21168;SDS011;10742;51.816;8.662;2023-12-07T14:13:28;12.73;;;5.40;;
21168;SDS011;10742;51.816;8.662;2023-12-07T14:16:49;13.90;;;5.27;;
21168;SDS011;10742;51.816;8.662;2023-12-07T14:20:11;13.53;;;5.13;;
21168;SDS011;10742;51.816;8.662;2023-12-07T14:23:34;12.27;;;4.50;;
21168;SDS011;10742;51.816;8.662;2023-12-07T14:26:57;11.43;;;4.63;;
21168;SDS011;10742;51.816;8.662;2023-12-07T14:30:18;9.17;;;4.60;;
21168;SDS011;10742;51.816;8.662;2023-12-07T14:33:39;10.73;;;4.97;;
21168;SDS011;10742;51.816;8.662;2023-12-07T14:37:02;13.83;;;4.73;;
21168;SDS011;10742;51.816;8.662;2023-12-07T14:40:25;11.47;;;5.30;;
21168;SDS011;10742;51.816;8.662;2023-12-07T14:43:46;7.17;;;3.90;;
21168;SDS011;10742;51.816;8.662;2023-12-07T14:47:08;12.30;;;4.70;;
21168;SDS011;10742;51.816;8.662;2023-12-07T14:50:29;7.93;;;3.90;;
21168;SDS011;10742;51.816;8.662;2023-12-07T14:53:50;10.10;;;4.30;;
21168;SDS011;10742;51.816;8.662;2023-12-07T14:57:11;11.97;;;4.60;;
21168;SDS011;10742;51.816;8.662;2023-12-07T15:00:32;10.03;;;4.73;;
21168;SDS011;10742;51.816;8.662;2023-12-07T15:03:53;13.57;;;5.07;;
21168;SDS011;10742;51.816;8.662;2023-12-07T15:07:14;15.00;;;5.10;;
21168;SDS011;10742;51.816;8.662;2023-12-07T15:10:37;16.83;;;6.63;;
21168;SDS011;10742;51.816;8.662;2023-12-07T15:13:58;16.03;;;6.37;;
21168;SDS011;10742;51.816;8.662;2023-12-07T15:17:20;17.70;;;7.43;;
21168;SDS011;10742;51.816;8.662;2023-12-07T15:20:41;17.33;;;7.47;;
21168;SDS011;10742;51.816;8.662;2023-12-07T15:24:03;19.30;;;7.80;;
21168;SDS011;10742;51.816;8.662;2023-12-07T15:27:24;19.37;;;7.80;;
21168;SDS011;10742;51.816;8.662;2023-12-07T15:30:47;19.73;;;7.53;;
21168;SDS011;10742;51.816;8.662;2023-12-07T15:34:08;19.70;;;8.00;;
21168;SDS011;10742;51.816;8.662;2023-12-07T15:37:35;17.13;;;7.67;;
21168;SDS011;10742;51.816;8.662;2023-12-07T15:40:56;16.87;;;7.43;;
21168;SDS011;10742;51.816;8.662;2023-12-07T15:44:19;18.40;;;7.13;;
21168;SDS011;10742;51.816;8.662;2023-12-07T15:47:42;22.30;;;9.53;;
21168;SDS011;10742;51.816;8.662;2023-12-07T15:51:03;20.53;;;8.63;;
21168;SDS011;10742;51.816;8.662;2023-12-07T15:54:25;17.87;;;7.53;;
21168;SDS011;10742;51.816;8.662;2023-12-07T15:57:46;20.83;;;8.10;;
21168;SDS011;10742;51.816;8.662;2023-12-07T16:01:07;19.97;;;8.30;;
21168;SDS011;10742;51.816;8.662;2023-12-07T16:04:28;20.13;;;7.57;;
21168;SDS011;10742;51.816;8.662;2023-12-07T16:07:50;18.70;;;7.87;;
21168;SDS011;10742;51.816;8.662;2023-12-07T16:11:12;18.90;;;7.97;;
21168;SDS011;10742;51.816;8.662;2023-12-07T16:14:34;19.87;;;8.40;;
21168;SDS011;10742;51.816;8.662;2023-12-07T16:17:57;19.60;;;7.23;;
21168;SDS011;10742;51.816;8.662;2023-12-07T16:21:18;16.33;;;7.20;;
21168;SDS011;10742;51.816;8.662;2023-12-07T16:24:43;21.13;;;8.03;;
21168;SDS011;10742;51.816;8.662;2023-12-07T16:28:04;17.60;;;7.23;;
21168;SDS011;10742;51.816;8.662;2023-12-07T16:31:26;20.53;;;8.43;;
21168;SDS011;10742;51.816;8.662;2023-12-07T16:34:48;24.10;;;8.80;;
21168;SDS011;10742;51.816;8.662;2023-12-07T16:38:09;23.00;;;8.83;;
21168;SDS011;10742;51.816;8.662;2023-12-07T16:41:30;23.50;;;9.00;;
21168;SDS011;10742;51.816;8.662;2023-12-07T16:44:53;23.00;;;8.77;;
21168;SDS011;10742;51.816;8.662;2023-12-07T16:48:16;21.13;;;8.40;;
21168;SDS011;10742;51.816;8.662;2023-12-07T16:51:37;18.93;;;8.27;;
21168;SDS011;10742;51.816;8.662;2023-12-07T16:55:00;22.17;;;9.10;;
21168;SDS011;10742;51.816;8.662;2023-12-07T16:58:21;23.38;;;9.30;;
21168;SDS011;10742;51.816;8.662;2023-12-07T17:01:47;18.73;;;8.47;;
21168;SDS011;10742;51.816;8.662;2023-12-07T17:05:08;22.90;;;8.67;;
21168;SDS011;10742;51.816;8.662;2023-12-07T17:08:29;20.53;;;7.93;;
21168;SDS011;10742;51.816;8.662;2023-12-07T17:11:50;19.53;;;8.07;;
21168;SDS011;10742;51.816;8.662;2023-12-07T17:15:12;19.70;;;7.70;;
21168;SDS011;10742;51.816;8.662;2023-12-07T17:18:33;20.00;;;7.30;;
21168;SDS011;10742;51.816;8.662;2023-12-07T17:21:54;17.93;;;7.60;;
21168;SDS011;10742;51.816;8.662;2023-12-07T17:25:16;18.87;;;7.67;;
21168;SDS011;10742;51.816;8.662;2023-12-07T17:28:39;18.37;;;7.67;;
21168;SDS011;10742;51.816;8.662;2023-12-07T17:32:00;17.63;;;7.23;;
21168;SDS011;10742;51.816;8.662;2023-12-07T17:35:21;21.13;;;7.67;;
21168;SDS011;10742;51.816;8.662;2023-12-07T17:38:42;19.43;;;7.17;;
21168;SDS011;10742;51.816;8.662;2023-12-07T17:42:03;19.17;;;7.27;;
21168;SDS011;10742;51.816;8.662;2023-12-07T17:45:25;23.00;;;7.87;;
21168;SDS011;10742;51.816;8.662;2023-12-07T17:48:47;20.50;;;7.53;;
21168;SDS011;10742;51.816;8.662;2023-12-07T17:52:10;19.77;;;7.67;;
21168;SDS011;10742;51.816;8.662;2023-12-07T17:55:32;21.43;;;7.57;;
21168;SDS011;10742;51.816;8.662;2023-12-07T17:58:54;21.07;;;7.40;;
21168;SDS011;10742;51.816;8.662;2023-12-07T18:02:18;15.67;;;6.27;;
21168;SDS011;10742;51.816;8.662;2023-12-07T18:05:40;18.27;;;6.43;;
21168;SDS011;10742;51.816;8.662;2023-12-07T18:09:02;18.03;;;7.00;;
21168;SDS011;10742;51.816;8.662;2023-12-07T18:12:24;24.50;;;8.73;;
21168;SDS011;10742;51.816;8.662;2023-12-07T18:15:46;18.00;;;7.33;;
21168;SDS011;10742;51.816;8.662;2023-12-07T18:19:07;19.67;;;7.27;;
21168;SDS011;10742;51.816;8.662;2023-12-07T18:22:29;18.57;;;7.23;;
21168;SDS011;10742;51.816;8.662;2023-12-07T18:25:50;15.70;;;6.43;;
21168;SDS011;10742;51.816;8.662;2023-12-07T18:29:12;18.57;;;7.67;;
21168;SDS011;10742;51.816;8.662;2023-12-07T18:32:33;18.00;;;7.37;;
21168;SDS011;10742;51.816;8.662;2023-12-07T18:35:54;16.80;;;6.70;;
21168;SDS011;10742;51.816;8.662;2023-12-07T18:39:18;17.00;;;7.03;;
21168;SDS011;10742;51.816;8.662;2023-12-07T18:42:39;17.03;;;6.50;;
21168;SDS011;10742;51.816;8.662;2023-12-07T18:46:01;18.07;;;7.43;;
21168;SDS011;10742;51.816;8.662;2023-12-07T18:49:25;17.93;;;6.83;;
21168;SDS011;10742;51.816;8.662;2023-12-07T18:52:47;17.30;;;6.53;;
21168;SDS011;10742;51.816;8.662;2023-12-07T18:56:08;20.03;;;7.07;;
21168;SDS011;10742;51.816;8.662;2023-12-07T18:59:30;19.07;;;7.50;;
21168;SDS011;10742;51.816;8.662;2023-12-07T19:02:52;19.27;;;7.23;;
21168;SDS011;10742;51.816;8.662;2023-12-07T19:06:13;20.13;;;8.13;;
21168;SDS011;10742;51.816;8.662;2023-12-07T19:09:35;22.67;;;7.93;;
21168;SDS011;10742;51.816;8.662;2023-12-07T19:12:57;19.27;;;7.30;;
21168;SDS011;10742;51.816;8.662;2023-12-07T19:16:19;19.83;;;7.87;;
21168;SDS011;10742;51.816;8.662;2023-12-07T19:19:40;17.83;;;7.23;;
21168;SDS011;10742;51.816;8.662;2023-12-07T19:23:02;21.70;;;8.37;;
21168;SDS011;10742;51.816;8.662;2023-12-07T19:26:23;23.47;;;8.23;;
21168;SDS011;10742;51.816;8.662;2023-12-07T19:29:45;21.10;;;8.87;;
21168;SDS011;10742;51.816;8.662;2023-12-07T19:33:06;22.87;;;8.17;;
21168;SDS011;10742;51.816;8.662;2023-12-07T19:36:28;20.20;;;8.30;;
21168;SDS011;10742;51.816;8.662;2023-12-07T19:39:49;24.10;;;9.57;;
21168;SDS011;10742;51.816;8.662;2023-12-07T19:43:10;23.13;;;8.93;;
21168;SDS011;10742;51.816;8.662;2023-12-07T19:46:31;23.53;;;9.23;;
21168;SDS011;10742;51.816;8.662;2023-12-07T19:49:53;23.73;;;9.73;;
21168;SDS011;10742;51.816;8.662;2023-12-07T19:53:14;26.77;;;10.10;;
21168;SDS011;10742;51.816;8.662;2023-12-07T19:56:37;24.77;;;9.73;;